Time;durP1;ratioP1;P1;durP2;ratioP2;P2;SDS_P1;SDS_P2;PMS_P1;PMS_P2;Temp;Humidity;BMP_temperature;BMP_pressure;BME280_temperature;BME280_humidity;BME280_pressure;Samples;Min_cycle;Max_cycle;Signal;HPM_P1;HPM_P2
2023/04/07 00:02:17;;;;;;;45.20;30.50;;;5.60;99.90;;;;;;4789737;30;20203;-82
2023/04/07 00:04:42;;;;;;;42.93;27.47;;;5.50;99.90;;;;;;4773243;30;20183;-82
2023/04/07 00:07:09;;;;;;;38.40;25.47;;;5.50;99.90;;;;;;4773239;30;20532;-82
2023/04/07 00:09:35;;;;;;;44.13;28.38;;;5.50;99.90;;;;;;4789279;30;20231;-80
2023/04/07 00:12:01;;;;;;;40.20;26.35;;;5.60;99.90;;;;;;4773098;30;20211;-80
2023/04/07 00:14:28;;;;;;;39.27;28.47;;;5.50;99.90;;;;;;4788885;30;20215;-80
2023/04/07 00:16:53;;;;;;;43.53;27.27;;;5.40;99.90;;;;;;4789244;30;20211;-80
2023/04/07 00:19:19;;;;;;;40.87;27.47;;;5.50;99.90;;;;;;4773029;30;20220;-80
2023/04/07 00:21:45;;;;;;;41.17;27.07;;;5.50;99.90;;;;;;4788979;30;20688;-80
2023/04/07 00:24:11;;;;;;;44.00;27.70;;;5.40;99.90;;;;;;4772867;30;20184;-80
2023/04/07 00:26:37;;;;;;;44.75;27.60;;;5.40;99.90;;;;;;4788831;29;20207;-80
2023/04/07 00:29:02;;;;;;;39.67;27.10;;;5.40;99.90;;;;;;4772788;30;20693;-80
2023/04/07 00:31:28;;;;;;;43.60;27.03;;;5.50;99.90;;;;;;4789061;30;20219;-80
2023/04/07 00:33:54;;;;;;;37.42;25.98;;;5.40;99.90;;;;;;4772862;30;20534;-79
2023/04/07 00:36:20;;;;;;;46.80;27.50;;;5.40;99.90;;;;;;4772614;30;20222;-80
2023/04/07 00:38:46;;;;;;;43.30;27.63;;;5.40;99.90;;;;;;4788856;30;20427;-80
2023/04/07 00:41:12;;;;;;;39.90;26.40;;;5.40;99.90;;;;;;4772497;30;20217;-80
2023/04/07 00:43:38;;;;;;;43.90;26.67;;;5.40;99.90;;;;;;4772597;30;20519;-80
2023/04/07 00:46:04;;;;;;;37.70;25.60;;;5.40;99.90;;;;;;4772293;30;20942;-80
2023/04/07 00:48:30;;;;;;;39.08;26.73;;;5.40;99.90;;;;;;4772569;30;20665;-80
2023/04/07 00:50:56;;;;;;;41.80;25.57;;;5.40;99.90;;;;;;4788573;30;20240;-80
2023/04/07 00:53:21;;;;;;;39.80;25.83;;;5.40;99.90;;;;;;4772465;30;20423;-79
2023/04/07 00:55:47;;;;;;;38.40;25.60;;;5.40;99.90;;;;;;4772536;30;20507;-80
2023/04/07 00:58:13;;;;;;;36.80;24.37;;;5.50;99.90;;;;;;4772437;30;20214;-80
2023/04/07 01:00:50;;;;;;;39.47;25.23;;;5.50;99.90;;;;;;4772376;30;20425;-80
2023/04/07 01:03:35;;;;;;;37.45;26.25;;;5.40;99.90;;;;;;4772480;30;20261;-79
2023/04/07 01:06:01;;;;;;;43.42;29.58;;;5.40;99.90;;;;;;4772409;30;20187;-80
2023/04/07 01:08:56;;;;;;;47.75;26.95;;;5.40;99.90;;;;;;4788532;30;20669;-80
2023/04/07 01:11:27;;;;;;;42.88;25.35;;;5.30;99.90;;;;;;4787715;30;20319;-80
2023/04/07 01:13:53;;;;;;;38.50;24.38;;;5.20;99.90;;;;;;4772338;30;20186;-80
2023/04/07 01:16:30;;;;;;;38.57;24.50;;;5.30;99.90;;;;;;4788571;30;20252;-80
2023/04/07 01:19:32;;;;;;;38.75;26.10;;;5.30;99.90;;;;;;4772266;30;20431;-80
2023/04/07 01:21:59;;;;;;;42.30;27.95;;;5.40;99.90;;;;;;4788637;30;20630;-80
2023/04/07 01:24:49;;;;;;;42.45;28.95;;;5.40;99.90;;;;;;4772435;30;20676;-80
2023/04/07 01:27:30;;;;;;;45.70;27.20;;;5.40;99.90;;;;;;4788200;30;20214;-80
2023/04/07 01:29:57;;;;;;;40.88;26.92;;;5.40;99.90;;;;;;4772166;30;20251;-79
2023/04/07 01:32:25;;;;;;;39.65;25.02;;;5.30;99.90;;;;;;4788637;30;20661;-80
2023/04/07 01:34:53;;;;;;;35.45;24.75;;;5.40;99.90;;;;;;4772223;30;20191;-80
2023/04/07 01:37:20;;;;;;;38.08;24.85;;;5.30;99.90;;;;;;4789586;29;20219;-80
2023/04/07 01:39:46;;;;;;;38.83;26.13;;;5.40;99.90;;;;;;4775494;30;20187;-79
2023/04/07 01:42:13;;;;;;;42.33;27.13;;;5.40;99.90;;;;;;4775563;30;20268;-80
2023/04/07 01:44:40;;;;;;;39.80;25.95;;;5.40;99.90;;;;;;4791624;30;20183;-80
2023/04/07 01:47:06;;;;;;;36.03;24.65;;;5.30;99.90;;;;;;4775425;30;20739;-79
2023/04/07 01:49:34;;;;;;;40.47;26.25;;;5.40;99.90;;;;;;4775372;30;20770;-79
2023/04/07 01:52:01;;;;;;;40.45;25.17;;;5.40;99.90;;;;;;4775369;30;20226;-80
2023/04/07 01:54:28;;;;;;;39.45;25.05;;;5.30;99.90;;;;;;4791569;30;20187;-79
2023/04/07 01:56:53;;;;;;;39.08;25.60;;;5.30;99.90;;;;;;4791561;30;20302;-79
2023/04/07 01:59:19;;;;;;;36.77;24.20;;;5.30;99.90;;;;;;4791556;30;20681;-79
2023/04/07 02:01:45;;;;;;;38.70;25.02;;;5.20;99.90;;;;;;4775190;30;20215;-80
2023/04/07 02:04:38;;;;;;;36.00;23.00;;;5.30;99.90;;;;;;4791451;30;20186;-80
2023/04/07 02:07:17;;;;;;;32.78;22.67;;;5.30;99.90;;;;;;4791667;30;20677;-80
2023/04/07 02:09:45;;;;;;;36.08;24.20;;;5.40;99.90;;;;;;4775352;30;20669;-79
2023/04/07 02:12:14;;;;;;;36.22;24.05;;;5.40;99.90;;;;;;4775100;30;20287;-79
2023/04/07 02:14:42;;;;;;;40.72;24.50;;;5.40;99.90;;;;;;4774967;30;20232;-80
2023/04/07 02:17:08;;;;;;;36.95;24.75;;;5.40;99.90;;;;;;4774910;30;20222;-80
2023/04/07 02:19:35;;;;;;;33.22;23.08;;;5.40;99.90;;;;;;4791121;30;20179;-80
2023/04/07 02:22:03;;;;;;;38.47;23.20;;;5.40;99.90;;;;;;4791214;30;20729;-80
2023/04/07 02:24:29;;;;;;;37.97;24.75;;;5.40;99.90;;;;;;4774869;30;20183;-80
2023/04/07 02:26:55;;;;;;;38.87;24.33;;;5.30;99.90;;;;;;4791101;30;20211;-80
2023/04/07 02:29:21;;;;;;;38.60;24.40;;;5.30;99.90;;;;;;4790877;30;20546;-80
2023/04/07 02:31:46;;;;;;;38.63;24.43;;;5.30;99.90;;;;;;4774709;30;20471;-80
2023/04/07 02:34:12;;;;;;;46.70;27.17;;;5.30;99.90;;;;;;4791250;30;20213;-80
2023/04/07 02:36:38;;;;;;;81.40;36.23;;;5.30;99.90;;;;;;4790981;30;20215;-80
2023/04/07 02:39:04;;;;;;;98.18;42.75;;;5.30;99.90;;;;;;4774708;30;20209;-79
2023/04/07 02:41:30;;;;;;;102.20;40.47;;;5.30;99.90;;;;;;4774660;30;20215;-80
2023/04/07 02:43:55;;;;;;;88.50;35.00;;;5.30;99.90;;;;;;4774450;30;20922;-80
2023/04/07 02:46:21;;;;;;;107.40;44.30;;;5.20;99.90;;;;;;4790410;30;20308;-80
2023/04/07 02:48:47;;;;;;;81.73;36.80;;;5.20;99.90;;;;;;4774340;30;20219;-80
2023/04/07 02:51:12;;;;;;;92.07;38.90;;;5.20;99.90;;;;;;4790517;30;20222;-80
2023/04/07 02:53:38;;;;;;;48.90;27.97;;;5.20;99.90;;;;;;4774471;30;20193;-80
2023/04/07 02:56:03;;;;;;;60.33;30.23;;;5.20;99.90;;;;;;4790610;30;20190;-80
2023/04/07 02:58:29;;;;;;;38.30;24.40;;;5.10;99.90;;;;;;4790588;30;20184;-80
2023/04/07 03:00:55;;;;;;;43.47;25.23;;;5.10;99.90;;;;;;4774132;30;20195;-80
2023/04/07 03:03:21;;;;;;;40.47;24.90;;;5.10;99.90;;;;;;4774466;30;20596;-80
2023/04/07 03:05:46;;;;;;;38.37;23.53;;;5.00;99.90;;;;;;4774150;30;20350;-80
2023/04/07 03:08:12;;;;;;;42.03;24.27;;;5.00;99.90;;;;;;4774082;30;20329;-80
2023/04/07 03:10:39;;;;;;;38.35;23.73;;;5.00;99.90;;;;;;4790231;30;20301;-80
2023/04/07 03:13:05;;;;;;;37.50;23.20;;;5.10;99.90;;;;;;4790271;30;20294;-80
2023/04/07 03:15:30;;;;;;;35.50;23.60;;;5.10;99.90;;;;;;4790250;30;20493;-80
2023/04/07 03:17:56;;;;;;;35.27;24.97;;;5.10;99.90;;;;;;4790600;30;20225;-80
2023/04/07 03:20:22;;;;;;;39.90;23.50;;;5.30;99.90;;;;;;4774000;30;20203;-80
2023/04/07 03:22:47;;;;;;;33.90;22.77;;;5.30;99.90;;;;;;4790434;30;20200;-80
2023/04/07 03:25:13;;;;;;;37.07;24.33;;;5.20;99.90;;;;;;4790154;30;20412;-80
2023/04/07 03:27:39;;;;;;;42.80;26.03;;;5.20;99.90;;;;;;4773809;30;20219;-79
2023/04/07 03:30:06;;;;;;;40.33;26.00;;;5.10;99.90;;;;;;4789977;30;20230;-80
2023/04/07 03:32:31;;;;;;;35.67;24.23;;;5.10;99.90;;;;;;4790184;30;20474;-79
2023/04/07 03:34:57;;;;;;;35.07;23.23;;;5.10;99.90;;;;;;4773722;30;20235;-80
2023/04/07 03:37:22;;;;;;;35.83;23.10;;;5.00;99.90;;;;;;4790231;30;20252;-80
2023/04/07 03:39:48;;;;;;;40.40;24.23;;;4.90;99.90;;;;;;4789688;30;20650;-79
2023/04/07 03:42:14;;;;;;;36.30;22.57;;;5.00;99.90;;;;;;4789954;30;20617;-80
2023/04/07 03:44:40;;;;;;;41.63;26.20;;;5.00;99.90;;;;;;4789640;30;20315;-80
2023/04/07 03:47:06;;;;;;;39.75;24.55;;;4.90;99.90;;;;;;4773223;30;20567;-79
2023/04/07 03:49:32;;;;;;;41.40;25.93;;;4.90;99.90;;;;;;4789564;30;20687;-79
2023/04/07 03:51:57;;;;;;;37.53;25.33;;;4.90;99.90;;;;;;4773333;30;20264;-80
2023/04/07 03:54:23;;;;;;;38.70;24.80;;;4.90;99.90;;;;;;4773482;30;20195;-80
2023/04/07 03:56:49;;;;;;;42.00;25.70;;;4.90;99.90;;;;;;4773340;30;20225;-80
2023/04/07 03:59:15;;;;;;;40.17;24.58;;;5.00;99.90;;;;;;4789320;29;20198;-80
2023/04/07 04:01:40;;;;;;;41.70;26.60;;;5.10;99.90;;;;;;4772868;30;20207;-80
2023/04/07 04:04:07;;;;;;;40.47;27.47;;;5.00;99.90;;;;;;4773282;30;20191;-80
2023/04/07 04:06:33;;;;;;;45.92;28.67;;;5.00;99.90;;;;;;4789213;30;20274;-80
2023/04/07 04:08:58;;;;;;;44.23;27.90;;;4.90;99.90;;;;;;4789244;30;20717;-80
2023/04/07 04:11:25;;;;;;;44.40;29.43;;;4.90;99.90;;;;;;4789198;30;20277;-80
2023/04/07 04:13:51;;;;;;;46.80;30.17;;;5.00;99.90;;;;;;4773044;30;20223;-80
2023/04/07 04:16:16;;;;;;;44.10;26.52;;;5.00;99.90;;;;;;4773018;30;20211;-79
2023/04/07 04:18:42;;;;;;;44.80;27.40;;;5.10;99.90;;;;;;4773046;30;20202;-79
2023/04/07 04:21:08;;;;;;;41.93;27.47;;;5.20;99.90;;;;;;4772897;30;20591;-79
2023/04/07 04:23:33;;;;;;;46.50;29.13;;;5.30;99.90;;;;;;4772890;30;20191;-79
2023/04/07 04:26:02;;;;;;;47.40;27.57;;;5.20;99.90;;;;;;4772793;30;20428;-80
2023/04/07 04:28:28;;;;;;;43.40;26.80;;;5.30;99.90;;;;;;4772773;30;20223;-79
2023/04/07 04:30:54;;;;;;;41.72;26.90;;;5.30;99.90;;;;;;4772745;30;20183;-79
2023/04/07 04:33:20;;;;;;;41.03;26.93;;;5.30;99.90;;;;;;4789183;30;20191;-79
2023/04/07 04:35:46;;;;;;;37.83;26.37;;;5.40;99.90;;;;;;4772647;30;20270;-79
2023/04/07 04:38:11;;;;;;;37.57;25.17;;;5.30;99.90;;;;;;4788864;30;20436;-79
2023/04/07 04:40:37;;;;;;;48.43;28.43;;;5.30;99.90;;;;;;4788812;30;20266;-80
2023/04/07 04:43:05;;;;;;;46.60;27.57;;;5.30;99.90;;;;;;4788724;30;20455;-79
2023/04/07 04:45:32;;;;;;;47.22;30.70;;;5.30;99.90;;;;;;4788796;30;20547;-79
2023/04/07 04:47:57;;;;;;;48.78;30.55;;;5.30;99.90;;;;;;4788317;30;20274;-79
2023/04/07 04:50:23;;;;;;;44.33;29.27;;;5.40;99.90;;;;;;4788757;30;20232;-79
2023/04/07 04:52:49;;;;;;;44.43;29.30;;;5.30;99.90;;;;;;4788861;30;20195;-79
2023/04/07 04:55:14;;;;;;;49.53;30.20;;;5.30;99.90;;;;;;4772547;30;20286;-79
2023/04/07 04:57:40;;;;;;;51.67;30.03;;;5.30;99.90;;;;;;4789137;30;20206;-79
2023/04/07 05:00:07;;;;;;;49.33;30.13;;;5.30;99.90;;;;;;4772143;30;20195;-79
2023/04/07 05:02:33;;;;;;;48.03;29.08;;;5.30;99.90;;;;;;4772625;30;20491;-78
2023/04/07 05:04:58;;;;;;;48.83;29.50;;;5.30;99.90;;;;;;4788529;30;20187;-79
2023/04/07 05:07:24;;;;;;;49.83;30.37;;;5.30;99.90;;;;;;4788311;30;20503;-79
2023/04/07 05:09:50;;;;;;;49.60;29.45;;;5.30;99.90;;;;;;4772275;30;20233;-79
2023/04/07 05:12:16;;;;;;;48.70;29.90;;;5.30;99.90;;;;;;4789608;30;20249;-79
2023/04/07 05:14:42;;;;;;;48.47;29.70;;;5.40;99.90;;;;;;4776064;30;20199;-79
2023/04/07 05:17:07;;;;;;;48.93;30.87;;;5.30;99.90;;;;;;4776064;30;20991;-79
2023/04/07 05:19:33;;;;;;;54.87;31.87;;;5.40;99.90;;;;;;4792179;30;20195;-79
2023/04/07 05:21:59;;;;;;;45.07;28.40;;;5.30;99.90;;;;;;4792192;30;20211;-79
2023/04/07 05:24:28;;;;;;;49.97;29.70;;;5.30;99.90;;;;;;4775891;30;20278;-79
2023/04/07 05:26:55;;;;;;;50.63;30.90;;;5.20;99.90;;;;;;4792153;30;20537;-79
2023/04/07 05:29:21;;;;;;;51.28;31.40;;;5.20;99.90;;;;;;4791442;30;20231;-79
2023/04/07 05:31:47;;;;;;;50.83;34.55;;;5.20;99.90;;;;;;4791726;30;20211;-79
2023/04/07 05:34:13;;;;;;;48.30;31.60;;;5.30;99.90;;;;;;4791913;30;20646;-81
2023/04/07 05:36:39;;;;;;;45.47;27.87;;;5.30;99.90;;;;;;4775709;30;20463;-81
2023/04/07 05:39:05;;;;;;;67.93;42.37;;;5.20;99.90;;;;;;4791839;30;20201;-81
2023/04/07 05:41:30;;;;;;;54.80;36.70;;;5.20;99.90;;;;;;4775590;30;20953;-81
2023/04/07 05:43:56;;;;;;;41.03;26.20;;;5.20;99.90;;;;;;4791779;30;20415;-81
2023/04/07 05:46:21;;;;;;;44.70;26.50;;;5.20;99.90;;;;;;4791384;30;20239;-81
2023/04/07 05:48:47;;;;;;;47.77;28.37;;;5.30;99.90;;;;;;4775562;30;20701;-81
2023/04/07 05:51:14;;;;;;;37.60;22.63;;;5.30;99.90;;;;;;4791667;30;20620;-81
2023/04/07 05:53:39;;;;;;;40.97;25.38;;;5.20;99.90;;;;;;4775440;30;20217;-81
2023/04/07 05:56:06;;;;;;;45.97;25.87;;;5.10;99.90;;;;;;4791391;30;20187;-81
2023/04/07 05:58:31;;;;;;;41.47;24.83;;;5.00;99.90;;;;;;4791522;30;20179;-81
2023/04/07 06:00:57;;;;;;;38.70;24.83;;;5.00;99.90;;;;;;4791310;30;20206;-81
2023/04/07 06:03:23;;;;;;;38.13;23.27;;;4.90;99.90;;;;;;4791528;30;20262;-81
2023/04/07 06:05:49;;;;;;;43.07;25.80;;;4.90;99.90;;;;;;4791361;30;20186;-81
2023/04/07 06:08:15;;;;;;;45.47;27.23;;;4.90;99.90;;;;;;4775005;30;20597;-81
2023/04/07 06:10:40;;;;;;;40.10;24.27;;;4.90;99.90;;;;;;4791045;30;20180;-81
2023/04/07 06:13:06;;;;;;;42.20;25.30;;;5.00;99.90;;;;;;4791213;30;20538;-81
2023/04/07 06:15:32;;;;;;;40.22;24.95;;;5.00;99.90;;;;;;4775096;30;20232;-80
2023/04/07 06:17:58;;;;;;;42.27;26.50;;;5.00;99.90;;;;;;4775125;30;20214;-81
2023/04/07 06:20:26;;;;;;;39.00;24.60;;;5.10;99.90;;;;;;4791249;30;20457;-81
2023/04/07 06:22:52;;;;;;;38.83;25.23;;;5.10;99.90;;;;;;4790454;29;20251;-81
2023/04/07 06:25:18;;;;;;;39.33;24.17;;;5.30;99.90;;;;;;4774693;30;20236;-81
2023/04/07 06:27:44;;;;;;;33.37;22.47;;;5.30;99.90;;;;;;4791346;30;20649;-81
2023/04/07 06:30:10;;;;;;;37.00;24.13;;;5.20;99.90;;;;;;4791064;30;20184;-81
2023/04/07 06:32:36;;;;;;;37.17;24.38;;;5.30;99.90;;;;;;4791252;30;20206;-81
2023/04/07 06:35:02;;;;;;;33.40;23.43;;;5.30;99.90;;;;;;4774724;30;20681;-81
2023/04/07 06:37:27;;;;;;;31.20;18.50;;;5.30;99.90;;;;;;4774658;30;20244;-82
2023/04/07 06:39:53;;;;;;;35.03;23.47;;;5.30;99.90;;;;;;4790836;30;20691;-81
2023/04/07 06:42:19;;;;;;;36.13;23.23;;;5.40;99.90;;;;;;4791010;30;20260;-81
2023/04/07 06:44:45;;;;;;;34.87;22.20;;;5.40;99.90;;;;;;4790774;30;20267;-81
2023/04/07 06:47:11;;;;;;;34.00;23.40;;;5.50;99.90;;;;;;4773214;30;20510;-81
2023/04/07 06:49:36;;;;;;;38.87;24.60;;;5.50;99.90;;;;;;4774307;30;20223;-81
2023/04/07 06:52:02;;;;;;;35.13;24.00;;;5.50;99.90;;;;;;4773286;30;20889;-81
2023/04/07 06:54:28;;;;;;;32.60;21.48;;;5.50;99.90;;;;;;4788853;30;20183;-81
2023/04/07 06:56:55;;;;;;;30.27;18.97;;;5.70;99.90;;;;;;4788658;30;20213;-81
2023/04/07 06:59:21;;;;;;;28.90;18.60;;;5.70;99.90;;;;;;4788623;30;20387;-81
2023/04/07 07:01:48;;;;;;;29.30;20.60;;;5.70;99.90;;;;;;4771094;30;20867;-81
2023/04/07 07:04:14;;;;;;;29.33;19.88;;;5.70;99.90;;;;;;4772117;30;20466;-81
2023/04/07 07:06:40;;;;;;;27.35;18.08;;;5.80;99.90;;;;;;4788267;30;20573;-81
2023/04/07 07:09:05;;;;;;;30.70;22.07;;;5.80;99.90;;;;;;4788137;30;20219;-81
2023/04/07 07:11:31;;;;;;;29.30;20.70;;;5.90;99.90;;;;;;4788330;30;20466;-82
2023/04/07 07:13:58;;;;;;;31.33;22.15;;;5.90;99.90;;;;;;4788260;30;20557;-81
2023/04/07 07:16:23;;;;;;;30.63;20.92;;;6.00;99.90;;;;;;4788317;30;20219;-81
2023/04/07 07:18:50;;;;;;;31.03;20.03;;;6.00;99.90;;;;;;4788198;30;20267;-81
2023/04/07 07:21:17;;;;;;;31.17;21.30;;;6.00;99.90;;;;;;4771924;30;20267;-81
2023/04/07 07:23:43;;;;;;;31.25;21.50;;;6.10;99.90;;;;;;4789854;30;20187;-81
2023/04/07 07:26:09;;;;;;;32.70;23.10;;;6.10;99.90;;;;;;4773454;30;20192;-81
2023/04/07 07:28:35;;;;;;;33.33;21.50;;;6.20;99.90;;;;;;4789971;30;20225;-81
2023/04/07 07:31:07;;;;;;;32.40;21.23;;;6.20;99.90;;;;;;4789878;30;20443;-81
2023/04/07 07:33:33;;;;;;;35.65;23.10;;;6.20;99.90;;;;;;4790000;30;20568;-82
2023/04/07 07:35:59;;;;;;;35.17;23.70;;;6.10;99.90;;;;;;4789055;29;20195;-81
2023/04/07 07:38:26;;;;;;;32.93;20.70;;;6.20;99.90;;;;;;4773765;30;20190;-81
2023/04/07 07:40:52;;;;;;;36.72;25.08;;;6.30;99.90;;;;;;4788774;30;20179;-81
2023/04/07 07:43:17;;;;;;;49.63;35.80;;;6.30;99.90;;;;;;4772882;30;20193;-81
2023/04/07 07:45:43;;;;;;;34.80;21.70;;;6.20;99.90;;;;;;4772655;30;20419;-81
2023/04/07 07:48:10;;;;;;;39.50;26.50;;;6.10;99.90;;;;;;4770416;30;20251;-81
2023/04/07 07:50:35;;;;;;;36.80;25.13;;;6.10;99.90;;;;;;4770473;30;20425;-81
2023/04/07 07:53:01;;;;;;;37.00;24.90;;;6.10;99.90;;;;;;4770878;30;20208;-81
2023/04/07 07:55:27;;;;;;;33.30;22.60;;;6.10;99.90;;;;;;4769714;30;20907;-81
2023/04/07 07:57:53;;;;;;;31.97;23.77;;;6.00;99.90;;;;;;4768384;30;20269;-81
2023/04/07 08:00:18;;;;;;;36.37;23.63;;;6.00;99.90;;;;;;4769845;30;20196;-81
2023/04/07 08:02:44;;;;;;;35.33;22.03;;;6.00;99.90;;;;;;4768314;30;20212;-81
2023/04/07 08:05:10;;;;;;;40.83;25.83;;;6.10;99.90;;;;;;4769522;30;20188;-81
2023/04/07 08:07:36;;;;;;;41.67;26.87;;;6.10;99.90;;;;;;4770212;30;20199;-81
2023/04/07 08:10:02;;;;;;;41.42;25.92;;;6.20;99.90;;;;;;4771363;30;20192;-81
2023/04/07 08:12:27;;;;;;;42.17;25.50;;;6.30;99.90;;;;;;4770140;30;20595;-82
2023/04/07 08:14:53;;;;;;;39.03;23.93;;;6.40;99.90;;;;;;4770140;30;20196;-81
2023/04/07 08:17:18;;;;;;;31.20;22.70;;;6.40;99.90;;;;;;4770183;30;20212;-81
2023/04/07 08:19:45;;;;;;;53.53;32.50;;;6.40;99.90;;;;;;4771216;30;20183;-81
2023/04/07 08:22:10;;;;;;;59.80;35.60;;;6.40;99.90;;;;;;4771416;30;20203;-81
2023/04/07 08:24:36;;;;;;;39.30;25.43;;;6.50;99.90;;;;;;4771220;30;20532;-81
2023/04/07 08:27:02;;;;;;;36.63;23.90;;;6.60;99.90;;;;;;4771288;30;20215;-81
2023/04/07 08:29:27;;;;;;;38.70;23.60;;;6.60;99.90;;;;;;4769881;30;20231;-81
2023/04/07 08:31:53;;;;;;;36.33;24.20;;;6.80;99.90;;;;;;4771253;30;20862;-81
2023/04/07 08:34:20;;;;;;;37.60;23.40;;;6.70;99.90;;;;;;4771122;30;20192;-81
2023/04/07 08:36:46;;;;;;;34.72;22.52;;;6.80;99.90;;;;;;4771173;30;20299;-81
2023/04/07 08:39:11;;;;;;;36.57;23.27;;;6.70;99.90;;;;;;4769808;30;20636;-81
2023/04/07 08:41:43;;;;;;;36.77;25.10;;;6.90;99.90;;;;;;4770860;30;20444;-81
2023/04/07 08:44:10;;;;;;;44.53;26.98;;;7.00;99.90;;;;;;4771003;30;20422;-81
2023/04/07 08:46:38;;;;;;;40.70;26.58;;;7.10;99.90;;;;;;4775364;30;20246;-82
2023/04/07 08:49:07;;;;;;;43.53;28.23;;;7.10;99.90;;;;;;4788744;30;20218;-81
2023/04/07 08:51:36;;;;;;;39.05;26.00;;;7.10;99.90;;;;;;4772562;30;20264;-81
2023/04/07 08:54:17;;;;;;;40.95;27.10;;;7.10;99.90;;;;;;4772434;30;20266;-81
2023/04/07 08:56:43;;;;;;;38.97;26.13;;;7.20;99.90;;;;;;4772464;30;20344;-81
2023/04/07 08:59:12;;;;;;;37.25;25.67;;;7.30;99.90;;;;;;4788652;30;20183;-81
2023/04/07 09:01:39;;;;;;;35.05;24.42;;;7.40;99.90;;;;;;4772409;30;20215;-81
2023/04/07 09:04:06;;;;;;;41.53;27.00;;;7.60;99.90;;;;;;4788680;30;20688;-81
2023/04/07 09:06:33;;;;;;;38.10;25.42;;;7.60;99.90;;;;;;4772211;30;20225;-81
2023/04/07 09:09:00;;;;;;;37.72;25.38;;;7.70;99.90;;;;;;4772314;30;20705;-81
2023/04/07 09:11:27;;;;;;;40.17;27.58;;;7.70;99.90;;;;;;4772285;30;20211;-81
2023/04/07 09:13:53;;;;;;;44.25;28.15;;;7.70;99.90;;;;;;4788458;30;20187;-81
2023/04/07 09:16:19;;;;;;;41.20;28.40;;;7.70;99.90;;;;;;4788455;30;20557;-81
2023/04/07 09:18:45;;;;;;;50.10;29.23;;;7.50;99.90;;;;;;4788302;30;20184;-81
2023/04/07 09:21:11;;;;;;;42.47;28.42;;;7.50;99.90;;;;;;4788428;30;20964;-81
2023/04/07 09:23:39;;;;;;;45.83;28.07;;;7.40;99.90;;;;;;4772295;30;20206;-81
2023/04/07 09:26:16;;;;;;;41.33;26.20;;;7.50;99.90;;;;;;4788647;30;20195;-81
2023/04/07 09:28:47;;;;;;;42.70;27.65;;;7.60;99.90;;;;;;4772063;30;20641;-82
2023/04/07 09:31:13;;;;;;;36.95;25.70;;;7.60;99.90;;;;;;4772165;30;20566;-82
2023/04/07 09:33:39;;;;;;;33.57;23.47;;;7.70;99.90;;;;;;4788325;30;20187;-81
2023/04/07 09:36:06;;;;;;;37.58;24.75;;;7.70;99.90;;;;;;4772169;30;20195;-81
2023/04/07 09:38:34;;;;;;;38.42;26.40;;;7.70;99.90;;;;;;4771376;30;20191;-81
2023/04/07 09:41:08;;;;;;;34.70;23.83;;;7.80;99.90;;;;;;4786486;30;20191;-81
2023/04/07 09:43:36;;;;;;;38.10;26.42;;;7.80;99.90;;;;;;4786293;30;20248;-79
2023/04/07 09:46:13;;;;;;;34.80;25.75;;;7.80;99.90;;;;;;4786167;30;20179;-80
2023/04/07 09:48:40;;;;;;;32.10;21.77;;;7.80;99.90;;;;;;4770241;30;20705;-79
2023/04/07 09:51:08;;;;;;;32.63;23.05;;;7.70;99.90;;;;;;4769980;30;20211;-79
2023/04/07 09:53:47;;;;;;;30.42;22.42;;;7.80;99.90;;;;;;4770606;30;20198;-79
2023/04/07 09:56:15;;;;;;;31.73;21.95;;;7.80;99.90;;;;;;4772009;30;20695;-80
2023/04/07 09:58:42;;;;;;;35.40;23.98;;;7.90;99.90;;;;;;4789577;29;20188;-80
2023/04/07 10:01:08;;;;;;;36.03;25.27;;;7.80;99.90;;;;;;4791505;30;20195;-79
2023/04/07 10:03:35;;;;;;;34.50;23.85;;;7.90;99.90;;;;;;4775305;30;20223;-80
2023/04/07 10:06:02;;;;;;;37.28;25.17;;;7.90;99.90;;;;;;4775083;30;20732;-80
2023/04/07 10:08:32;;;;;;;34.95;24.38;;;8.00;99.90;;;;;;4791292;30;20584;-79
2023/04/07 10:11:02;;;;;;;35.25;25.02;;;8.20;99.90;;;;;;4791292;30;20195;-80
2023/04/07 10:13:33;;;;;;;36.70;26.48;;;8.30;99.90;;;;;;4775166;30;20226;-80
2023/04/07 10:16:01;;;;;;;31.23;22.27;;;8.40;99.90;;;;;;4791166;30;20218;-79
2023/04/07 10:18:31;;;;;;;36.15;22.95;;;8.50;99.90;;;;;;4791168;30;20674;-80
2023/04/07 10:21:00;;;;;;;35.05;23.65;;;8.50;99.90;;;;;;4791072;30;20634;-80
2023/04/07 10:23:56;;;;;;;35.85;25.60;;;8.40;99.90;;;;;;4791129;30;20658;-79
2023/04/07 10:26:26;;;;;;;35.70;25.35;;;8.30;99.90;;;;;;4774880;30;20207;-79
2023/04/07 10:28:58;;;;;;;31.98;23.10;;;8.20;99.90;;;;;;4791240;30;20634;-79
2023/04/07 10:31:24;;;;;;;35.67;24.58;;;8.30;99.90;;;;;;4774855;30;20307;-79
2023/04/07 10:33:52;;;;;;;32.33;23.80;;;8.30;99.90;;;;;;4774653;30;20245;-79
2023/04/07 10:36:19;;;;;;;38.55;25.42;;;8.20;99.90;;;;;;4774688;30;20213;-79
2023/04/07 10:39:07;;;;;;;36.00;25.45;;;8.10;99.90;;;;;;4774679;30;20252;-79
2023/04/07 10:41:37;;;;;;;37.65;25.83;;;8.10;99.90;;;;;;4774609;30;20227;-79
2023/04/07 10:44:07;;;;;;;34.25;25.77;;;8.20;99.90;;;;;;4774637;30;20256;-79
2023/04/07 10:46:46;;;;;;;36.85;24.80;;;8.30;99.90;;;;;;4774468;30;20350;-80
2023/04/07 10:49:12;;;;;;;37.67;26.75;;;8.20;99.90;;;;;;4774601;30;20227;-79
2023/04/07 10:51:38;;;;;;;39.03;26.70;;;8.00;99.90;;;;;;4790751;30;20285;-79
2023/04/07 10:54:21;;;;;;;34.50;24.73;;;8.10;99.90;;;;;;4774498;30;20222;-79
2023/04/07 10:57:02;;;;;;;38.90;26.63;;;8.20;99.90;;;;;;4790727;30;20210;-79
2023/04/07 10:59:34;;;;;;;36.90;24.92;;;8.30;99.90;;;;;;4790631;30;20658;-79
2023/04/07 11:02:15;;;;;;;35.25;24.45;;;8.20;99.90;;;;;;4790678;30;20203;-79
2023/04/07 11:04:45;;;;;;;40.20;25.75;;;8.20;99.90;;;;;;4774289;30;20194;-79
2023/04/07 11:07:12;;;;;;;37.97;26.60;;;8.20;99.90;;;;;;4790701;30;20207;-79
2023/04/07 11:09:39;;;;;;;40.83;29.20;;;8.30;99.90;;;;;;4790301;29;20298;-79
2023/04/07 11:12:05;;;;;;;34.05;23.40;;;8.40;99.90;;;;;;4790441;30;20234;-80
2023/04/07 11:14:32;;;;;;;40.80;27.40;;;8.50;99.90;;;;;;4774249;30;20187;-79
2023/04/07 11:17:00;;;;;;;44.25;28.92;;;8.40;99.90;;;;;;4789342;30;20198;-79
2023/04/07 11:19:27;;;;;;;41.10;26.73;;;8.40;99.90;;;;;;4789482;30;20653;-79
2023/04/07 11:22:17;;;;;;;33.15;25.27;;;8.40;99.90;;;;;;4790236;30;20215;-79
2023/04/07 11:24:45;;;;;;;40.50;28.83;;;8.50;99.90;;;;;;4790071;30;20214;-79
2023/04/07 11:27:12;;;;;;;35.33;25.45;;;8.50;99.90;;;;;;4790280;30;20665;-79
2023/04/07 11:29:38;;;;;;;41.13;25.40;;;8.50;99.90;;;;;;4773894;30;20226;-79
2023/04/07 11:32:05;;;;;;;39.87;27.13;;;8.50;99.90;;;;;;4789960;30;20661;-79
2023/04/07 11:34:34;;;;;;;34.30;23.65;;;8.60;99.90;;;;;;4790040;30;20190;-79
2023/04/07 11:37:19;;;;;;;34.15;25.30;;;8.40;99.90;;;;;;4789267;30;20536;-79
2023/04/07 11:39:54;;;;;;;38.65;25.98;;;8.40;99.90;;;;;;4787898;30;20190;-79
2023/04/07 11:42:39;;;;;;;35.08;24.48;;;8.20;99.90;;;;;;4771854;30;20211;-79
2023/04/07 11:45:14;;;;;;;32.45;23.50;;;8.20;99.90;;;;;;4787713;30;20692;-79
2023/04/07 11:47:40;;;;;;;37.55;27.80;;;8.30;99.90;;;;;;4768360;30;20235;-79
2023/04/07 11:50:07;;;;;;;39.90;28.60;;;8.40;99.90;;;;;;4768510;30;20563;-79
2023/04/07 11:52:47;;;;;;;35.45;24.30;;;8.50;99.90;;;;;;4770560;30;20477;-80
2023/04/07 11:55:21;;;;;;;29.95;22.27;;;8.60;99.90;;;;;;4770534;30;20576;-79
2023/04/07 11:57:47;;;;;;;33.47;23.90;;;8.50;99.90;;;;;;4772164;30;20665;-79
2023/04/07 12:00:14;;;;;;;35.00;23.83;;;8.60;99.90;;;;;;4770341;30;20273;-80
2023/04/07 12:02:41;;;;;;;36.90;25.45;;;8.70;99.90;;;;;;4770629;30;20283;-80
2023/04/07 12:05:09;;;;;;;31.05;22.73;;;8.80;99.90;;;;;;4770312;30;20184;-80
2023/04/07 12:07:35;;;;;;;35.90;24.08;;;8.90;99.90;;;;;;4771283;30;20690;-80
2023/04/07 12:10:21;;;;;;;36.58;26.45;;;8.80;99.90;;;;;;4771335;30;20238;-80
2023/04/07 12:12:47;;;;;;;44.90;32.45;;;8.90;99.90;;;;;;4770263;30;20582;-79
2023/04/07 12:15:13;;;;;;;32.67;24.38;;;8.70;99.90;;;;;;4770982;30;20199;-80
2023/04/07 12:17:45;;;;;;;34.47;24.97;;;8.70;99.90;;;;;;4771593;30;20199;-80
2023/04/07 12:20:11;;;;;;;30.50;23.25;;;8.80;99.90;;;;;;4770438;30;20452;-79
2023/04/07 12:22:37;;;;;;;33.37;24.27;;;8.80;99.90;;;;;;4771241;30;20231;-79
2023/04/07 12:25:03;;;;;;;38.78;25.75;;;8.90;99.90;;;;;;4771206;30;20519;-79
2023/04/07 12:27:30;;;;;;;35.70;27.23;;;8.90;99.90;;;;;;4770071;30;20257;-80
2023/04/07 12:29:55;;;;;;;40.73;29.00;;;8.90;99.90;;;;;;4769950;30;20220;-79
2023/04/07 12:32:21;;;;;;;40.77;29.47;;;8.80;99.90;;;;;;4771511;30;20460;-79
2023/04/07 12:34:47;;;;;;;41.87;30.63;;;8.80;99.90;;;;;;4769822;30;20436;-80
2023/04/07 12:37:13;;;;;;;39.93;28.43;;;8.60;99.90;;;;;;4771256;30;20796;-79
2023/04/07 12:39:38;;;;;;;46.73;31.20;;;8.40;99.90;;;;;;4769016;30;20578;-79